Hub


Voltar

 INFORMAÇÕES METEOROLÓGICAS

METAR FOR SBMT


ADDS - METARS form results

(1751 UTC 19 July 2019)
Data provider http://aviationweather.gov/metar/data/
 
METAR text: SBMT 191700Z 30001KT CAVOK 22/10 Q1024
Conditions at: SBMT (MARTE (CIV/MIL) , BR) observed 1700 UTC 19 July 2019
Temperature: 22.0°C (72°F)
Dewpoint: 10.0°C (50°F) [RH = 46%]
Pressure (altimeter): 30.24 inches Hg (1024.0 mb)
Winds: from the WNW (300 degrees) at 1 MPH (1 knots; 0.5 m/s)
Visibility: 6 or more miles (10+ km)
Ceiling: ceiling and visibility are OK
Clouds: unknown
Weather: no significant weather observed at this time


 MAPA DO AEROPORTO


 INFORMAÇÕES DA PISTA

Pista 12 Tamanho da pista 5249 ft Largura da pista 147 ft
Elevação da pista 2379 ft Ranhura da pista 984 ft Proa da pista 100
Pista 30 Tamanho da pista 5249 ft Largura da pista 147 ft
Elevação da pista 2376 ft Ranhura da pista 492 ft Proa da pista 280

 FREQUÊNCIAS DO AEROPORTO

Tipo APP Nome SAO PAULO Frequência 119.8 MHZ
Tipo GND Nome GND Frequência 121.6 MHZ
Tipo OPS Nome OPS Frequência 122.5 MHZ
Tipo TWR Nome TWR Frequência 118.7 MHZ

 AUXÍLIOS DE NAVEGAÇÃO PRÓXIMOS AO AEROPORTO

Tipo NDB Nome Marte Frequência 260 KHZ